CA-0191 weather

CLOSED King Christian Airport
Nunavut, Canada

Public forecast

Using degrees Celsius for public forecast. Weather courtesy of forecast.io.

METAR (pilot weather report)

Report is more than 6 hours old.

Closest report is Qaanaaq Airport, 402.5 nm (745.4 km) ENE. Retrieved 2014/07/24 10:50 UTC (5 years ago):

BGQQ 241050Z 13003KT 9999 FEW025 SCT045 BKN180 06/03 Q1014 RMK 1SC 3SC 6CI

TAF (pilot weather forecast)

Forecast is more than 6 hours old.

Closest forecast is Thule Air Base, 432.2 nm (800.5 km) E. Retrieved 2019/04/24 17:03 UTC (6 hours ago):

TAF BGTL 241700Z 2417/2523 24009KT 9999 SCT040 BKN100 QNH2966INS BECMG 2504/2505 VRB06KT 9999 OVC020 620204 QNH2975INS BECMG 2511/2512 10012KT 9000 -SHSN OVC015 610159 QNH2980INS TXM10/2421Z TNM20/2506Z LAST NO AMDS AFT 2419 NEXT 2509